createdAt,value
2018-08-18T00:00:17.773Z,91.50
2018-08-18T00:02:46.418Z,93.40
2018-08-18T00:05:15.793Z,93.80
2018-08-18T00:07:44.480Z,92.90
2018-08-18T00:10:15.205Z,92.50
2018-08-18T00:12:43.798Z,93.30
2018-08-18T00:15:12.569Z,94.60
2018-08-18T00:17:41.205Z,94.20
2018-08-18T00:20:12.426Z,92.40
2018-08-18T00:22:41.129Z,95.30
2018-08-18T00:25:09.769Z,93.30
2018-08-18T00:27:38.425Z,93.10
2018-08-18T00:30:14.090Z,93.10
2018-08-18T00:32:42.724Z,93.20
2018-08-18T00:35:11.435Z,93.30
2018-08-18T00:37:40.044Z,93.60
2018-08-18T00:40:09.774Z,94.40
2018-08-18T00:42:38.613Z,92.50
2018-08-18T00:45:09.048Z,93.20
2018-08-18T00:47:37.960Z,92.90
2018-08-18T00:50:07.182Z,92.80
2018-08-18T00:52:35.879Z,94.40
2018-08-18T00:55:04.650Z,95.50
2018-08-18T00:57:33.556Z,94.10
2018-08-18T01:00:02.156Z,94.50
2018-08-18T01:02:30.822Z,95.10
2018-08-18T01:05:00.649Z,95.00
2018-08-18T01:07:30.285Z,93.10
2018-08-18T01:09:59.297Z,93.20
2018-08-18T01:12:28.349Z,92.30
2018-08-18T01:14:57.271Z,93.10
2018-08-18T01:17:26.021Z,92.70
2018-08-18T01:19:56.108Z,93.30
2018-08-18T01:22:24.717Z,92.50
2018-08-18T01:24:53.614Z,93.10
2018-08-18T01:27:22.577Z,93.60
2018-08-18T01:30:05.657Z,94.50
2018-08-18T01:32:34.889Z,95.50
2018-08-18T01:35:03.476Z,94.00
2018-08-18T01:37:32.722Z,93.60
2018-08-18T01:40:01.595Z,94.30
2018-08-18T01:42:32.505Z,94.80
2018-08-18T01:45:01.141Z,95.50
2018-08-18T01:47:30.481Z,93.90
2018-08-18T01:50:04.046Z,94.60
2018-08-18T01:52:33.520Z,94.30
2018-08-18T01:55:02.228Z,94.50
2018-08-18T01:57:30.830Z,95.30
2018-08-18T02:00:01.375Z,95.20
2018-08-18T02:02:29.997Z,96.30
2018-08-18T02:05:07.025Z,94.80
2018-08-18T02:07:35.618Z,93.90
2018-08-18T02:10:05.638Z,94.40
2018-08-18T02:12:34.265Z,93.10
2018-08-18T02:15:02.866Z,93.70
2018-08-18T02:17:33.893Z,94.20
2018-08-18T02:20:02.664Z,94.90
2018-08-18T02:22:31.944Z,95.60
2018-08-18T02:25:00.815Z,94.40
2018-08-18T02:27:29.418Z,94.60
2018-08-18T02:30:13.085Z,94.30
2018-08-18T02:32:42.078Z,94.20
2018-08-18T02:35:10.727Z,93.80
2018-08-18T02:37:39.332Z,94.40
2018-08-18T02:40:12.315Z,94.00
2018-08-18T02:42:41.013Z,95.60
2018-08-18T02:45:10.524Z,93.80
2018-08-18T02:47:39.220Z,93.30
2018-08-18T02:50:08.550Z,94.10
2018-08-18T02:52:37.480Z,96.80
2018-08-18T02:55:08.298Z,93.90
2018-08-18T02:57:40.080Z,94.00
2018-08-18T03:00:28.718Z,94.00
2018-08-18T03:02:57.342Z,94.50
2018-08-18T03:05:25.997Z,93.90
2018-08-18T03:07:54.674Z,94.60
2018-08-18T03:10:27.149Z,93.90
2018-08-18T03:12:59.409Z,96.20
2018-08-18T03:16:06.069Z,95.00
2018-08-18T03:18:46.380Z,94.80
2018-08-18T03:21:15.272Z,95.90
2018-08-18T03:23:55.357Z,96.10
2018-08-18T03:26:29.385Z,94.60
2018-08-18T03:28:58.021Z,94.80
2018-08-18T03:31:26.629Z,95.50
2018-08-18T03:33:55.837Z,95.30
2018-08-18T03:36:28.433Z,95.70
2018-08-18T03:38:57.646Z,95.70
2018-08-18T03:41:27.106Z,95.20
2018-08-18T03:43:56.317Z,94.70
2018-08-18T03:46:24.929Z,95.30
2018-08-18T03:48:53.543Z,94.70
2018-08-18T03:51:28.750Z,97.10
2018-08-18T03:53:57.413Z,95.50
2018-08-18T03:56:26.041Z,96.50
2018-08-18T03:58:55.842Z,96.40
2018-08-18T04:02:01.480Z,96.00
2018-08-18T04:04:31.357Z,95.80
2018-08-18T04:07:00.809Z,96.20
2018-08-18T04:09:33.706Z,94.00
2018-08-18T04:12:03.502Z,95.80
2018-08-18T04:14:40.038Z,94.50
2018-08-18T04:17:19.576Z,94.70
2018-08-18T04:19:48.391Z,95.20
2018-08-18T04:22:18.806Z,95.10
2018-08-18T04:24:50.478Z,95.60
2018-08-18T04:27:36.490Z,96.10
2018-08-18T04:30:07.652Z,96.90
2018-08-18T04:32:58.315Z,95.50
2018-08-18T04:35:28.032Z,95.00
2018-08-18T04:37:57.438Z,95.50
2018-08-18T04:40:26.458Z,95.50
2018-08-18T04:42:58.108Z,95.40
2018-08-18T04:45:28.010Z,95.80
2018-08-18T04:47:57.679Z,96.10
2018-08-18T04:50:36.179Z,96.90
2018-08-18T04:53:04.974Z,97.80
2018-08-18T04:55:35.592Z,99.30
2018-08-18T04:58:04.766Z,96.80
2018-08-18T05:00:33.366Z,96.50
2018-08-18T05:03:01.985Z,96.60
2018-08-18T05:05:31.642Z,96.40
2018-08-18T05:08:01.058Z,96.30
2018-08-18T05:10:31.530Z,96.60
2018-08-18T05:13:00.145Z,97.90
2018-08-18T05:15:28.781Z,96.50
2018-08-18T05:17:57.370Z,97.00
2018-08-18T05:20:27.147Z,96.80
2018-08-18T05:22:57.662Z,98.20
2018-08-18T05:25:36.606Z,96.90
2018-08-18T05:28:05.204Z,97.10
2018-08-18T05:30:33.865Z,96.30
2018-08-18T05:33:02.470Z,97.90
2018-08-18T05:35:31.203Z,96.80
2018-08-18T05:38:00.157Z,95.50
2018-08-18T05:40:29.298Z,96.50
2018-08-18T05:42:57.930Z,96.80
2018-08-18T05:45:28.854Z,97.10
2018-08-18T05:47:57.478Z,96.90
2018-08-18T05:50:27.109Z,96.00
2018-08-18T05:53:17.497Z,95.80
2018-08-18T05:55:46.397Z,96.20
2018-08-18T05:58:16.767Z,94.90
2018-08-18T06:00:47.194Z,95.60
2018-08-18T06:03:20.189Z,95.30
2018-08-18T06:05:49.115Z,94.40
2018-08-18T06:08:17.729Z,94.10
2018-08-18T06:10:46.357Z,94.20
2018-08-18T06:13:20.986Z,93.80
2018-08-18T06:16:05.416Z,93.00
2018-08-18T06:18:35.949Z,92.30
2018-08-18T06:21:06.074Z,91.60
2018-08-18T06:23:34.964Z,90.50
2018-08-18T06:26:03.934Z,90.20
2018-08-18T06:28:32.970Z,88.60
2018-08-18T06:31:02.188Z,88.90
2018-08-18T06:33:30.897Z,87.10
2018-08-18T06:35:59.522Z,84.70
2018-08-18T06:38:28.177Z,85.40
2018-08-18T06:40:58.515Z,83.40
2018-08-18T06:43:28.241Z,82.90
2018-08-18T06:45:56.880Z,82.50
2018-08-18T06:48:29.558Z,80.40
2018-08-18T06:50:58.839Z,80.30
2018-08-18T06:53:28.110Z,79.60
2018-08-18T06:56:00.886Z,78.90
2018-08-18T06:58:29.497Z,77.50
2018-08-18T07:00:58.122Z,76.40
2018-08-18T07:03:36.077Z,76.90
2018-08-18T07:06:05.442Z,75.50
2018-08-18T07:08:40.573Z,74.70
2018-08-18T07:11:11.226Z,72.80
2018-08-18T07:13:40.365Z,71.40
2018-08-18T07:16:09.050Z,70.50
2018-08-18T07:18:38.283Z,70.70
2018-08-18T07:21:06.946Z,70.70
2018-08-18T07:23:35.565Z,67.60
2018-08-18T07:26:04.265Z,66.50
2018-08-18T07:28:32.932Z,67.20
2018-08-18T07:31:01.550Z,66.30
2018-08-18T07:33:30.965Z,65.20
2018-08-18T07:35:59.876Z,63.50
2018-08-18T07:38:29.730Z,62.00
2018-08-18T07:40:58.550Z,62.10
2018-08-18T07:43:30.386Z,59.80
2018-08-18T07:46:02.065Z,59.50
2018-08-18T07:48:31.171Z,59.90
2018-08-18T07:50:59.779Z,59.60
2018-08-18T07:53:28.646Z,58.90
2018-08-18T07:55:57.483Z,57.80
2018-08-18T07:58:27.695Z,58.70
2018-08-18T08:00:57.407Z,57.60
2018-08-18T08:03:26.572Z,58.10
2018-08-18T08:05:55.262Z,58.60
2018-08-18T08:08:23.976Z,56.40
2018-08-18T08:10:59.342Z,55.10
2018-08-18T08:13:28.696Z,57.10
2018-08-18T08:15:58.121Z,54.70
2018-08-18T08:18:26.738Z,52.90
2018-08-18T08:20:55.406Z,52.30
2018-08-18T08:23:24.112Z,54.00
2018-08-18T08:25:52.824Z,52.50
2018-08-18T08:28:21.542Z,52.20
2018-08-18T08:30:50.877Z,49.90
2018-08-18T08:33:32.792Z,51.70
2018-08-18T08:36:02.668Z,48.60
2018-08-18T08:38:42.441Z,51.70
2018-08-18T08:41:12.721Z,49.80
2018-08-18T08:43:41.593Z,46.90
2018-08-18T08:46:10.372Z,47.20
2018-08-18T08:48:38.966Z,46.20
2018-08-18T08:51:07.618Z,49.90
2018-08-18T08:53:37.132Z,46.00
2018-08-18T08:56:06.357Z,46.70
2018-08-18T08:58:39.135Z,46.00
2018-08-18T09:01:08.313Z,46.80
2018-08-18T09:03:37.022Z,46.60
2018-08-18T09:06:06.429Z,45.50
2018-08-18T09:08:35.431Z,45.10
2018-08-18T09:11:04.107Z,43.40
2018-08-18T09:13:32.874Z,43.20
2018-08-18T09:16:01.548Z,43.10
2018-08-18T09:18:30.204Z,43.90
2018-08-18T09:21:01.911Z,42.80
2018-08-18T09:23:35.513Z,42.30
2018-08-18T09:26:04.861Z,43.20
2018-08-18T09:28:34.401Z,43.50
2018-08-18T09:31:03.066Z,43.80
2018-08-18T09:33:31.645Z,43.90
2018-08-18T09:36:02.656Z,43.90
2018-08-18T09:38:31.274Z,43.80
2018-08-18T09:40:59.982Z,42.50
2018-08-18T09:43:28.673Z,40.90
2018-08-18T09:45:57.981Z,41.20
2018-08-18T09:48:26.922Z,41.80
2018-08-18T09:50:57.723Z,40.30
2018-08-18T09:53:26.909Z,40.10
2018-08-18T09:55:55.549Z,40.40
2018-08-18T09:58:24.178Z,40.50
2018-08-18T10:00:52.838Z,38.80
2018-08-18T10:03:21.432Z,40.00
2018-08-18T10:05:50.128Z,38.70
2018-08-18T10:08:18.768Z,40.00
2018-08-18T10:10:47.424Z,38.60
2018-08-18T10:13:16.018Z,40.00
2018-08-18T10:15:45.234Z,36.40
2018-08-18T10:18:14.677Z,38.00
2018-08-18T10:20:48.642Z,37.20
2018-08-18T10:23:17.338Z,35.90
2018-08-18T10:25:46.295Z,37.80
2018-08-18T10:28:14.941Z,37.50
2018-08-18T10:30:43.577Z,35.80
2018-08-18T10:33:12.206Z,38.10
2018-08-18T10:35:41.634Z,36.60
2018-08-18T10:38:10.204Z,38.30
2018-08-18T10:40:38.855Z,37.20
2018-08-18T10:43:07.609Z,37.60
2018-08-18T10:45:37.071Z,37.80
2018-08-18T10:48:06.941Z,36.10
2018-08-18T10:51:43.592Z,38.40
2018-08-18T10:54:12.134Z,39.00
2018-08-18T10:56:40.737Z,37.90
2018-08-18T10:59:20.892Z,39.60
2018-08-18T11:02:07.189Z,40.00
2018-08-18T11:04:36.811Z,40.10
2018-08-18T11:07:06.079Z,40.90
2018-08-18T11:09:34.790Z,40.40
2018-08-18T11:12:05.212Z,41.60
2018-08-18T11:14:33.780Z,42.60
2018-08-18T11:17:02.969Z,41.30
2018-08-18T11:19:32.506Z,42.70
2018-08-18T11:22:12.150Z,42.20
2018-08-18T11:24:41.085Z,42.90
2018-08-18T11:27:09.858Z,44.00
2018-08-18T11:29:38.422Z,44.20
2018-08-18T11:32:07.057Z,44.50
2018-08-18T11:34:35.625Z,44.60
2018-08-18T11:37:06.064Z,44.30
2018-08-18T11:39:34.666Z,44.90
2018-08-18T11:42:03.313Z,45.30
2018-08-18T11:44:31.939Z,46.00
2018-08-18T11:47:03.435Z,45.60
2018-08-18T11:49:32.718Z,46.00
2018-08-18T11:52:01.834Z,45.40
2018-08-18T11:54:30.444Z,46.40
2018-08-18T11:56:59.011Z,47.10
2018-08-18T11:59:27.633Z,47.10
2018-08-18T12:01:56.641Z,46.90
2018-08-18T12:04:25.227Z,46.90
2018-08-18T12:06:56.731Z,47.10
2018-08-18T12:09:26.013Z,47.50
2018-08-18T12:11:56.102Z,47.60
2018-08-18T12:14:26.092Z,47.10
2018-08-18T12:16:54.729Z,47.70
2018-08-18T12:19:23.374Z,48.80
2018-08-18T12:21:54.533Z,48.40
2018-08-18T12:24:23.211Z,49.20
2018-08-18T12:27:12.916Z,49.20
2018-08-18T12:29:41.623Z,48.40
2018-08-18T12:32:18.325Z,49.20
2018-08-18T12:34:47.012Z,49.40
2018-08-18T12:37:15.682Z,49.00
2018-08-18T12:39:44.297Z,48.70
2018-08-18T12:42:17.070Z,49.60
2018-08-18T12:44:46.139Z,50.10
2018-08-18T12:47:14.738Z,49.90
2018-08-18T12:49:43.369Z,49.90
2018-08-18T12:52:21.805Z,49.80
2018-08-18T12:54:52.051Z,49.40
2018-08-18T12:57:31.899Z,50.00
2018-08-18T13:00:01.829Z,50.20
2018-08-18T13:02:47.807Z,50.10
2018-08-18T13:05:20.212Z,50.50
2018-08-18T13:07:55.639Z,50.70
2018-08-18T13:10:32.073Z,50.30
2018-08-18T13:13:04.880Z,50.10
2018-08-18T13:15:35.305Z,50.10
2018-08-18T13:18:05.366Z,50.30
2018-08-18T13:20:33.998Z,50.20
2018-08-18T13:23:03.542Z,50.50
2018-08-18T13:25:32.217Z,50.80
2018-08-18T13:28:01.694Z,50.80
2018-08-18T13:30:33.582Z,50.70
2018-08-18T13:33:03.757Z,50.70
2018-08-18T13:35:32.476Z,51.40
2018-08-18T13:38:01.056Z,50.50
2018-08-18T13:40:29.688Z,51.40
2018-08-18T13:42:58.310Z,51.60
2018-08-18T13:45:57.697Z,51.00
2018-08-18T13:48:26.314Z,51.80
2018-08-18T13:50:54.933Z,51.00
2018-08-18T13:53:23.517Z,50.80
2018-08-18T13:55:52.133Z,50.80
2018-08-18T13:58:20.870Z,51.30
2018-08-18T14:00:49.489Z,50.90
2018-08-18T14:03:25.889Z,50.70
2018-08-18T14:05:55.082Z,50.80
2018-08-18T14:08:23.678Z,51.10
2018-08-18T14:10:52.327Z,50.50
2018-08-18T14:13:20.960Z,51.20
2018-08-18T14:15:54.765Z,51.30
2018-08-18T14:18:23.353Z,51.50
2018-08-18T14:20:59.733Z,51.70
2018-08-18T14:23:30.542Z,51.10
2018-08-18T14:25:59.153Z,51.90
2018-08-18T14:28:27.784Z,51.00
2018-08-18T14:30:56.453Z,51.80
2018-08-18T14:33:25.214Z,51.60
2018-08-18T14:35:58.141Z,51.80
2018-08-18T14:38:27.224Z,51.70
2018-08-18T14:40:55.978Z,51.10
2018-08-18T14:43:29.842Z,51.40
2018-08-18T14:45:58.506Z,51.00
2018-08-18T14:48:27.110Z,52.00
2018-08-18T14:50:55.721Z,51.80
2018-08-18T14:53:25.101Z,50.70
2018-08-18T14:55:54.185Z,51.40
2018-08-18T14:58:27.830Z,51.10
2018-08-18T15:01:01.715Z,51.50
2018-08-18T15:03:31.057Z,51.20
2018-08-18T15:05:59.740Z,51.30
2018-08-18T15:08:28.345Z,52.00
2018-08-18T15:10:56.989Z,52.10
2018-08-18T15:13:25.598Z,52.20
2018-08-18T15:15:54.251Z,52.10
2018-08-18T15:18:23.066Z,51.90
2018-08-18T15:20:51.656Z,52.10
2018-08-18T15:23:21.081Z,52.60
2018-08-18T15:25:49.666Z,52.70
2018-08-18T15:28:19.426Z,52.40
2018-08-18T15:30:51.336Z,52.30
2018-08-18T15:33:21.740Z,52.50
2018-08-18T15:35:50.453Z,52.50
2018-08-18T15:38:19.969Z,52.40
2018-08-18T15:40:48.553Z,52.70
2018-08-18T15:43:17.201Z,52.70
2018-08-18T15:46:00.222Z,52.80
2018-08-18T15:48:28.950Z,52.60
2018-08-18T15:50:57.604Z,52.90
2018-08-18T15:54:01.981Z,52.50
2018-08-18T15:56:32.969Z,53.00
2018-08-18T15:59:02.300Z,52.80
2018-08-18T16:01:32.376Z,53.30
2018-08-18T16:04:02.434Z,53.30
2018-08-18T16:06:31.146Z,52.90
2018-08-18T16:08:59.807Z,53.00
2018-08-18T16:11:28.380Z,53.20
2018-08-18T16:13:57.012Z,53.40
2018-08-18T16:16:25.592Z,53.80
2018-08-18T16:19:02.426Z,53.40
2018-08-18T16:21:33.021Z,53.60
2018-08-18T16:24:02.449Z,53.30
2018-08-18T16:26:31.034Z,53.60
2018-08-18T16:28:59.647Z,54.10
2018-08-18T16:31:28.264Z,54.20
2018-08-18T16:33:56.872Z,54.40
2018-08-18T16:36:32.503Z,53.90
2018-08-18T16:39:01.513Z,54.00
2018-08-18T16:41:30.170Z,53.90
2018-08-18T16:43:58.800Z,54.50
2018-08-18T16:46:28.895Z,54.40
2018-08-18T16:48:57.517Z,54.10
2018-08-18T16:51:26.242Z,53.60
2018-08-18T16:53:54.910Z,53.80
2018-08-18T16:56:28.329Z,53.80
2018-08-18T16:58:58.217Z,54.30
2018-08-18T17:01:26.869Z,54.00
2018-08-18T17:03:55.772Z,54.00
2018-08-18T17:06:24.388Z,54.00
2018-08-18T17:08:53.016Z,54.60
2018-08-18T17:11:21.594Z,55.40
2018-08-18T17:13:50.353Z,55.50
2018-08-18T17:16:21.249Z,54.10
2018-08-18T17:18:49.886Z,54.90
2018-08-18T17:21:18.477Z,54.90
2018-08-18T17:23:47.103Z,55.10
2018-08-18T17:26:15.689Z,54.50
2018-08-18T17:28:44.271Z,55.10
2018-08-18T17:31:12.901Z,55.50
2018-08-18T17:33:41.477Z,55.50
2018-08-18T17:36:10.134Z,55.00
2018-08-18T17:38:38.729Z,56.10
2018-08-18T17:41:07.439Z,55.40
2018-08-18T17:43:36.066Z,55.50
2018-08-18T17:46:05.620Z,56.00
2018-08-18T17:48:42.955Z,56.20
2018-08-18T17:51:12.033Z,56.90
2018-08-18T17:53:47.909Z,56.90
2018-08-18T17:56:16.574Z,56.10
2018-08-18T17:58:45.194Z,57.30
2018-08-18T18:01:13.826Z,58.40
2018-08-18T18:03:42.547Z,59.40
2018-08-18T18:06:11.221Z,60.30
2018-08-18T18:08:39.872Z,60.00
2018-08-18T18:11:08.697Z,62.20
2018-08-18T18:13:37.285Z,62.80
2018-08-18T18:16:15.817Z,63.80
2018-08-18T18:18:46.196Z,64.50
2018-08-18T18:21:15.556Z,66.20
2018-08-18T18:23:44.182Z,65.80
2018-08-18T18:26:12.814Z,66.80
2018-08-18T18:28:41.900Z,67.80
2018-08-18T18:31:10.725Z,67.70
2018-08-18T18:33:41.850Z,67.30
2018-08-18T18:36:12.707Z,65.90
2018-08-18T18:38:54.775Z,67.20
2018-08-18T18:41:24.981Z,66.30
2018-08-18T18:43:58.461Z,67.30
2018-08-18T18:46:27.150Z,67.60
2018-08-18T18:48:57.066Z,67.80
2018-08-18T18:51:25.747Z,67.50
2018-08-18T18:53:57.129Z,67.90
2018-08-18T18:56:26.362Z,68.70
2018-08-18T18:58:54.973Z,68.80
2018-08-18T19:01:23.605Z,69.80
2018-08-18T19:03:52.586Z,67.90
2018-08-18T19:06:21.271Z,68.60
2018-08-18T19:08:57.885Z,67.70
2018-08-18T19:11:27.273Z,68.20
2018-08-18T19:13:56.917Z,69.00
2018-08-18T19:16:25.598Z,68.80
2018-08-18T19:18:54.429Z,69.10
2018-08-18T19:21:27.511Z,70.00
2018-08-18T19:23:56.340Z,71.50
2018-08-18T19:26:25.237Z,68.80
2018-08-18T19:28:53.806Z,69.50
2018-08-18T19:31:28.056Z,70.40
2018-08-18T19:34:09.965Z,70.40
2018-08-18T19:36:56.119Z,70.60
2018-08-18T19:39:32.422Z,72.00
2018-08-18T19:42:15.848Z,72.50
2018-08-18T19:44:52.513Z,72.50
2018-08-18T19:47:31.060Z,72.30
2018-08-18T19:50:01.177Z,72.80
2018-08-18T19:52:32.768Z,73.60
2018-08-18T19:55:03.226Z,73.20
2018-08-18T19:57:37.502Z,73.00
2018-08-18T20:00:22.126Z,73.90
2018-08-18T20:03:11.648Z,74.00
2018-08-18T20:05:41.742Z,73.50
2018-08-18T20:08:13.068Z,72.90
2018-08-18T20:10:47.649Z,75.00
2018-08-18T20:13:24.261Z,74.00
2018-08-18T20:16:06.968Z,75.00
2018-08-18T20:18:51.864Z,74.20
2018-08-18T20:21:25.037Z,74.60
2018-08-18T20:24:06.835Z,75.40
2018-08-18T20:26:50.677Z,74.50
2018-08-18T20:29:25.717Z,75.20
2018-08-18T20:32:07.574Z,75.30
2018-08-18T20:34:45.123Z,77.20
2018-08-18T20:37:22.258Z,75.70
2018-08-18T20:39:53.496Z,76.60
2018-08-18T20:42:31.871Z,75.40
2018-08-18T20:45:04.923Z,75.60
2018-08-18T20:47:52.570Z,78.20
2018-08-18T20:50:32.660Z,76.20
2018-08-18T20:53:15.000Z,75.80
2018-08-18T20:55:51.798Z,76.10
2018-08-18T20:58:29.768Z,76.70
2018-08-18T21:01:15.177Z,76.40
2018-08-18T21:03:55.513Z,76.60
2018-08-18T21:06:26.603Z,76.80
2018-08-18T21:09:10.368Z,77.00
2018-08-18T21:11:40.736Z,77.30
2018-08-18T21:14:11.964Z,77.40
2018-08-18T21:16:42.528Z,78.10
2018-08-18T21:19:12.927Z,78.00
2018-08-18T21:21:43.686Z,78.30
2018-08-18T21:24:13.790Z,78.10
2018-08-18T21:26:44.667Z,79.10
2018-08-18T21:29:14.190Z,77.60
2018-08-18T21:31:48.027Z,77.30
2018-08-18T21:34:17.510Z,77.00
2018-08-18T21:36:47.639Z,77.00
2018-08-18T21:39:17.464Z,78.20
2018-08-18T21:41:48.382Z,78.00
2018-08-18T21:44:17.180Z,78.70
2018-08-18T21:46:46.586Z,78.90
2018-08-18T21:49:16.281Z,78.10
2018-08-18T21:51:45.917Z,77.30
2018-08-18T21:54:14.581Z,77.80
2018-08-18T21:56:44.824Z,78.00
2018-08-18T21:59:14.278Z,78.50
2018-08-18T22:01:42.995Z,79.00
2018-08-18T22:04:11.685Z,78.10
2018-08-18T22:06:40.271Z,78.80
2018-08-18T22:09:22.417Z,78.00
2018-08-18T22:11:51.144Z,77.80
2018-08-18T22:14:19.905Z,79.40
2018-08-18T22:16:55.373Z,79.60
2018-08-18T22:19:24.066Z,80.30
2018-08-18T22:21:52.755Z,79.30
2018-08-18T22:24:21.507Z,79.20
2018-08-18T22:26:50.209Z,79.90
2018-08-18T22:29:23.692Z,80.00
2018-08-18T22:31:53.000Z,80.90
2018-08-18T22:34:21.639Z,80.90
2018-08-18T22:36:50.285Z,82.30
2018-08-18T22:39:19.439Z,83.90
2018-08-18T22:41:48.025Z,82.40
2018-08-18T22:44:16.653Z,80.80
2018-08-18T22:46:45.246Z,79.20
2018-08-18T22:49:13.933Z,81.00
2018-08-18T22:51:42.611Z,81.90
2018-08-18T22:54:11.232Z,79.60
2018-08-18T22:56:40.359Z,81.70
2018-08-18T22:59:09.256Z,79.30
2018-08-18T23:01:38.829Z,81.90
2018-08-18T23:04:40.184Z,81.20
2018-08-18T23:07:09.197Z,82.40
2018-08-18T23:09:37.829Z,82.10
2018-08-18T23:12:07.376Z,80.70
2018-08-18T23:14:38.166Z,81.00
2018-08-18T23:17:08.169Z,81.20
2018-08-18T23:19:37.301Z,81.80
2018-08-18T23:22:06.008Z,81.30
2018-08-18T23:24:36.425Z,81.40
2018-08-18T23:27:05.373Z,81.80
2018-08-18T23:29:34.119Z,83.00
2018-08-18T23:32:16.453Z,81.40
2018-08-18T23:34:45.307Z,81.30
2018-08-18T23:37:20.281Z,82.00
2018-08-18T23:39:53.177Z,81.10
2018-08-18T23:42:23.124Z,81.80
2018-08-18T23:44:51.763Z,81.40
2018-08-18T23:47:20.693Z,81.30
2018-08-18T23:49:49.310Z,82.10
2018-08-18T23:52:18.000Z,80.40
2018-08-18T23:54:46.709Z,80.60
2018-08-18T23:57:16.445Z,80.90
2018-08-18T23:59:45.219Z,79.60
